Marlyn Manor, NJ

5:00 AM EDT on June 23, 2017 (GMT -0400)
Wildwood Crest | | Change Station

Elev 0 ft 38.98 °N, 74.83 °W | Updated 22 seconds ago

Clear
Clear
73.4 °F
Feels Like 76 °F
N
0.2
Wind Variable Wind from South
Gusts 2.5 mph

Today
High -- | Low -- °F
--% Chance of Precip.
Yesterday
High -- | Low -- °F
Precip. -- in
Pressure 29.89 in
Visibility 10.0 miles
Clouds Clear
Heat Index 76 °F
Dew Point 34 °F
Humidity 24%
Rainfall 0.00 in
Snow Depth Not available.
5:34 AM 8:28 PM
Waning Crescent, 1% visible
METAR KWWD 230856Z AUTO 22012KT 10SM CLR 24/22 A2988 RMK AO2 SLP120 T02440222 56014
Pressure 29.89 in
Visibility 10.0 miles
Clouds Clear
Heat Index 76 °F
Dew Point 34 °F
Humidity 24%
Rainfall 0.00 in
Snow Depth Not available.
5:34 AM 8:28 PM
Waning Crescent, 1% visible
METAR KWWD 230856Z AUTO 22012KT 10SM CLR 24/22 A2988 RMK AO2 SLP120 T02440222 56014

Get Severe Weather Alerts

Thanks for signing up!

Be on the lookout for a verification email in your inbox.

You'll start receiving the daily forecast at 6 AM.

×

10-Day Weather Forecast

Almanac

Astronomy

Jun. 23, 2017 Rise Set
Actual Time
Civil Twilight
Nautical Twilight
Astronomical Twilight
Moon
Length of Visible Light
Length of Day
Tomorrow will be .
, % of the Moon is Illuminated

Today's Extremes

State Highs State Lows

Community

WunderPhotos

Category 6

Welcome to Category 6. This is the collective home for Weather Underground's featured writeups by Dr. Jeff Masters (right), Bob Henson (left), Chris Burt, and other regular contributors.

Nearby

Air Quality

  Air Quality AQ Index Pollutant
Not available.

Snow Depth

Station Depth Elevation

Earthquake Activity

City Distance Mag. Time & Date
Minimum magnitude displayed is 2.5.

Coastal Water Temperatures

Place Temperature

Stations

Nearby Weather Stations

Station Location Temp. Windchill Dew Point Humidity Wind Precip. Elev Updated Type
                   

Watches & Warnings

There are currently no watches in effect.